Terminal Aerodrome Forecast
Issued by NWS Sioux Falls, SD

Current Version | Previous Version | Text Only | Print | Product List | Glossary On
Versions: 1 2 3 4 5 6 7 8 9 10 11 12 13 14 15 16 17 18
000
FTUS43 KFSD 011133
TAFHON
TAF
KHON 011133Z 0112/0212 20006KT 6SM BR SCT006 OVC012
      TEMPO 0112/0114 4SM BR OVC006
     FM011500 24006KT P6SM SCT015 BKN120
     FM011800 28010KT P6SM SCT120
     FM020000 32005KT P6SM SCT100
     FM020800 36006KT P6SM BKN100=

USA.gov is the U.S. government's official web portal to all federal, state and local government web resources and services.